Explorer Of The Seas — C6SE4 — position and weather

sailwx.info

Track history (hours):
 
Tides and Currents Weather Stations Pressure Air Temp Water Temp Dewpoint Dewpoint Depression Visibility Wind Speed Wind Dir Waves Ship Positions

Explorer Of The Seas

Operator: Royal Caribbean Cruises Ltd

Last reported at 2019-May-20 14:03 UTC. Time now 2019-May-20 17:18 UTC.
Position N 29°10' W 013°19'.

Length 311 m; draft 9.1 m.

Type: Passenger vessel. MMSI: 311316000.

Date/timePositionNaut miles runAvg speedWind from/ knotsBaromVisibWave heightAir tempDewpointWater temp
2019-May-20 14:03N 29°10' W 013°19'119.5
2019-May-20 14:00N 29°09' W 013°20'1019.4
2019-May-20 13:30N 29°00' W 013°25'713.8
2019-May-20 13:00N 28°57' W 013°32'1 1.1
2019-May-20 12:30N 28°58' W 013°32'0 0.0
2019-May-20 11:59N 28°58' W 013°32'0 0.0
2019-May-20 11:10N 28°58' W 013°32'0 0.0
2019-May-20 10:46N 28°58' W 013°32'0 0.0
2019-May-20 10:16N 28°58' W 013°32'0 0.0
2019-May-20 09:58N 28°58' W 013°32'0 0.0
2019-May-20 09:22N 28°58' W 013°32'0 0.0
2019-May-20 08:33N 28°58' W 013°32'0 0.0
2019-May-20 08:24N 28°58' W 013°32'0 0.0
2019-May-20 08:00N 28°58' W 013°32'0 0.0
2019-May-20 07:29N 28°58' W 013°32'0 0.0
2019-May-20 06:54N 28°58' W 013°32'0 0.0
2019-May-20 06:30N 28°58' W 013°32'0 0.0
2019-May-20 05:58N 28°58' W 013°32'0 0.2
2019-May-20 05:30N 28°58' W 013°32'1 2.5
2019-May-20 04:59N 28°57' W 013°32'5 9.4
2019-May-20 04:29N 28°53' W 013°36'510.7
2019-May-20 03:59N 28°50' W 013°41'510.7
2019-May-20 03:30N 28°48' W 013°46'8010.7
2019-May-19 20:04N 28°19' W 015°11'111.8
2019-May-19 20:00N 28°18' W 015°11'510.6
2019-May-19 19:30N 28°14' W 015°15'510.1
2019-May-19 19:00N 28°10' W 015°19'611.2
2019-May-19 18:30N 28°07' W 015°24'2 4.1
2019-May-19 18:00N 28°08' W 015°25'0 0.0
2019-May-19 17:26N 28°08' W 015°25'0 0.0
2019-May-19 16:59N 28°08' W 015°25'0 0.0
2019-May-19 16:29N 28°08' W 015°25'0 0.0
2019-May-19 15:59N 28°08' W 015°25'0 0.0
2019-May-19 15:23N 28°08' W 015°25'0 0.0
2019-May-19 14:59N 28°08' W 015°25'0 0.0
2019-May-19 14:29N 28°08' W 015°25'0 0.0
2019-May-19 13:56N 28°08' W 015°25'0 0.0
2019-May-19 13:26N 28°08' W 015°25'0 0.0
2019-May-19 12:47N 28°08' W 015°25'0 0.0
2019-May-19 12:26N 28°08' W 015°25'0 0.0
2019-May-19 11:56N 28°08' W 015°25'0 0.0
2019-May-19 11:23N 28°08' W 015°25'0 0.0
2019-May-19 10:59N 28°08' W 015°25'0 0.0
2019-May-19 10:29N 28°08' W 015°25'0 0.0
2019-May-19 09:56N 28°08' W 015°25'0 0.0
2019-May-19 09:26N 28°08' W 015°25'0 0.0
2019-May-19 08:56N 28°08' W 015°25'0 0.0
2019-May-19 08:26N 28°08' W 015°25'0 0.0
2019-May-19 07:53N 28°08' W 015°25'0 0.0
2019-May-19 07:29N 28°08' W 015°25'0 0.0
2019-May-19 06:53N 28°08' W 015°25'0 1.3
2019-May-19 06:30N 28°08' W 015°25'3 5.7
2019-May-19 06:00N 28°07' W 015°22'4 8.3
2019-May-19 05:31N 28°09' W 015°18'5 9.8
2019-May-19 05:00N 28°14' W 015°17'40 7.2
2019-May-18 23:25N 28°43' W 015°48'5 8.1
2019-May-18 22:51N 28°41' W 015°53'3 8.4
2019-May-18 22:29N 28°39' W 015°56'4 8.4
2019-May-18 22:00N 28°36' W 015°59'4 8.3
2019-May-18 21:31N 28°33' W 016°02'4 8.1
2019-May-18 21:01N 28°30' W 016°05'4 7.5
2019-May-18 20:31N 28°28' W 016°09'4 8.3
2019-May-18 20:01N 28°28' W 016°14'1 1.4
2019-May-18 19:30N 28°29' W 016°14'0 0.0
2019-May-18 19:00N 28°29' W 016°14'0 0.0
2019-May-18 18:30N 28°29' W 016°14'0 0.0
2019-May-18 18:00N 28°29' W 016°14'0 0.0
2019-May-18 17:30N 28°29' W 016°14'0 0.0
2019-May-18 17:00N 28°29' W 016°14'0 0.0
2019-May-18 16:30N 28°29' W 016°14'0 0.0
2019-May-18 16:00N 28°29' W 016°14'0 0.0
2019-May-18 15:30N 28°29' W 016°14'0 0.0
2019-May-18 15:00N 28°29' W 016°14'0 0.0
2019-May-18 14:30N 28°29' W 016°14'0 0.0
2019-May-18 14:00N 28°29' W 016°14'0 0.0
2019-May-18 13:30N 28°29' W 016°14'0 0.0
2019-May-18 13:00N 28°29' W 016°14'0 0.0
2019-May-18 12:30N 28°29' W 016°14'0 0.0
2019-May-18 12:00N 28°29' W 016°14'0 0.0
2019-May-18 11:30N 28°29' W 016°14'0 0.0
2019-May-18 11:00N 28°29' W 016°14'0 0.0
2019-May-18 10:30N 28°29' W 016°14'0 0.0
2019-May-18 10:00N 28°29' W 016°14'0 0.0
2019-May-18 09:30N 28°29' W 016°14'2 3.4
2019-May-18 09:00N 28°28' W 016°12'816.5
2019-May-18 08:30N 28°33' W 016°05'17318.2
2019-May-17 23:00N 31°24' W 016°36'29912.5 040 / 371018.4 5.4 16.5 19.6
2019-May-16 23:00N 36°00' W 014°18'51521.5 030 / 251021.7 5.4 15.1 17.0
2019-May-15 23:00N 43°54' W 009°54'21419.4 310 / 351014.9 5.4 13.1 13.6
2019-May-15 12:00N 47°00' W 007°24'7322.3 110 / 301021.910.8 13.2 12.6
2019-May-15 08:43N 48°05' W 006°33'3921.1
2019-May-15 06:52N 48°38' W 006°02'821.7
2019-May-15 06:29N 48°45' W 005°56'1021.8
2019-May-15 06:01N 48°54' W 005°48'1121.7
2019-May-15 05:31N 49°00' W 005°34'1121.7
2019-May-15 05:01N 49°06' W 005°20'1521.2
2019-May-15 04:17N 49°14' W 005°00'1620.6
2019-May-15 03:30N 49°23' W 004°40'1820.0
2019-May-15 02:36N 49°31' W 004°15'219.8
2019-May-15 02:30N 49°32' W 004°12'1019.8
2019-May-15 02:00N 49°37' W 003°59'918.0
2019-May-15 01:30N 49°42' W 003°47'917.8
2019-May-15 01:00N 49°46' W 003°36'918.3
2019-May-15 00:31N 49°51' W 003°24'918.8
2019-May-15 00:00N 49°55' W 003°10'1119.5
2019-May-14 23:28N 50°00' W 002°56'1120.1
2019-May-14 22:54N 50°03' W 002°39'820.6
2019-May-14 22:30N 50°06' W 002°27'1020.9
2019-May-14 22:01N 50°10' W 002°12'1020.9
2019-May-14 21:30N 50°15' W 001°57'1120.5
2019-May-14 20:59N 50°21' W 001°43'1020.0
2019-May-14 20:31N 50°25' W 001°30'1019.6
2019-May-14 20:01N 50°29' W 001°16'1019.3
2019-May-14 19:30N 50°33' W 001°02'816.4
2019-May-14 19:00N 50°41' W 000°58'612.2
2019-May-14 18:30N 50°45' W 001°06'917.2
2019-May-14 18:00N 50°47' W 001°19'4 8.9
2019-May-14 17:30N 50°51' W 001°21'4 7.6
2019-May-14 17:00N 50°54' W 001°25'0 0.0
2019-May-14 14:29N 50°54' W 001°25'0 0.0
2019-May-14 13:23N 50°54' W 001°25'0 0.0
2019-May-14 12:02N 50°54' W 001°25'0 0.0
2019-May-14 11:41N 50°54' W 001°25'0 0.0
2019-May-14 11:20N 50°54' W 001°25'0 0.0
2019-May-14 10:41N 50°54' W 001°25'0 0.0
2019-May-14 10:26N 50°54' W 001°25'0 0.0
2019-May-14 09:59N 50°54' W 001°25'0 0.0
2019-May-14 09:29N 50°54' W 001°25'0 0.0
2019-May-14 08:56N 50°54' W 001°25'0 0.0
2019-May-14 08:29N 50°54' W 001°25'0 0.0
2019-May-14 07:08N 50°54' W 001°25'0 0.0
2019-May-14 06:16N 50°54' W 001°25'0 0.0
2019-May-14 05:46N 50°54' W 001°25'0 0.0
2019-May-14 04:34N 50°54' W 001°25'0 0.7
2019-May-14 04:08N 50°54' W 001°25'1 5.2
2019-May-14 04:00N 50°53' W 001°24'4 9.0
2019-May-14 03:31N 50°50' W 001°19'4 9.0
2019-May-14 03:01N 50°46' W 001°15'918.1
2019-May-14 02:30N 50°43' W 001°02'5 9.8
2019-May-14 02:00N 50°39' W 000°58'815.1
2019-May-14 01:30N 50°32' W 001°04'714.5
2019-May-14 01:00N 50°28' W 001°13'816.0
2019-May-14 00:30N 50°25' W 001°25'815.6
2019-May-14 00:00N 50°20' W 001°35'815.7
2019-May-13 23:30N 50°15' W 001°43'715.0
2019-May-13 23:00N 50°10' W 001°52'714.2
2019-May-13 22:30N 50°06' W 002°01'714.2
2019-May-13 22:00N 50°02' W 002°11'714.1
2019-May-13 21:30N 49°58' W 002°20'713.8
2019-May-13 21:00N 49°56' W 002°30'714.2
2019-May-13 20:30N 49°54' W 002°40'714.6
2019-May-13 20:00N 49°51' W 002°51'714.8
2019-May-13 19:30N 49°47' W 003°00'714.7
2019-May-13 19:00N 49°41' W 003°08'714.8
2019-May-13 18:30N 49°38' W 003°18'815.1
2019-May-13 18:00N 49°34' W 003°28'815.0
2019-May-13 17:29N 49°30' W 003°39'715.1
2019-May-13 17:00N 49°27' W 003°48'815.2
2019-May-13 16:30N 49°23' W 003°58'815.1
2019-May-13 16:00N 49°20' W 004°09'1015.4
2019-May-13 15:21N 49°16' W 004°23'515.5
2019-May-13 15:00N 49°13' W 004°30'3315.9
2019-May-13 12:55N 48°57' W 005°14'1516.6
2019-May-13 12:00N 48°49' W 005°34'29817.7
2019-May-12 19:14N 43°52' W 005°38'518.5
2019-May-12 18:57N 43°46' W 005°37'918.2
2019-May-12 18:28N 43°37' W 005°36'5 0.5
2019-May-12 08:31N 43°34' W 005°41'0 1.6
2019-May-12 08:29N 43°34' W 005°41'18616.2
2019-May-11 21:00N 42°48' W 009°48'21218.0 040 / 421024.1 5.4 13.7 14.0
2019-May-11 09:14N 39°16' W 009°55'919.2
2019-May-11 08:45N 39°07' W 009°54'519.1
2019-May-11 08:30N 39°03' W 009°54'1019.2
2019-May-11 08:00N 38°53' W 009°53'1019.1
2019-May-11 07:29N 38°43' W 009°52'919.3
2019-May-11 07:00N 38°34' W 009°50'1019.1
2019-May-11 06:28N 38°24' W 009°48'3318.8
2019-May-11 04:42N 37°52' W 009°39'519.2
2019-May-11 04:27N 37°47' W 009°37'3819.0
2019-May-11 02:29N 37°10' W 009°26'918.7
2019-May-11 02:00N 37°02' W 009°23'1118.8
2019-May-11 01:24N 36°52' W 009°18'819.2
2019-May-11 00:59N 36°46' W 009°11'919.3
2019-May-11 00:30N 36°42' W 009°00'1019.3
2019-May-10 23:59N 36°39' W 008°48'3719.3
2019-May-10 22:06N 36°27' W 008°05'321.0
2019-May-10 21:57N 36°26' W 008°02'186194.7
2019-May-10 21:00N 36°12' W 004°12'   320 / 301015.710.8 18.1 18.0
Track history (hours):
 
Tides and Currents Weather Stations Pressure Air Temp Water Temp Dewpoint Dewpoint Depression Visibility Wind Speed Wind Dir Waves Ship Positions

Explorer Of The Seas

Operator: Royal Caribbean Cruises Ltd

Last reported at 2019-May-20 14:03 UTC. Time now 2019-May-20 17:18 UTC.
Position N 29°10' W 013°19'.

Length 311 m; draft 9.1 m.

Type: Passenger vessel. MMSI: 311316000.

Date/timePositionNaut miles runAvg speedWind from/ knotsBaromVisibWave heightAir tempDewpointWater temp
2019-May-20 14:03N 29°10' W 013°19'119.5
2019-May-20 14:00N 29°09' W 013°20'1019.4
2019-May-20 13:30N 29°00' W 013°25'713.8
2019-May-20 13:00N 28°57' W 013°32'1 1.1
2019-May-20 12:30N 28°58' W 013°32'0 0.0
2019-May-20 11:59N 28°58' W 013°32'0 0.0
2019-May-20 11:10N 28°58' W 013°32'0 0.0
2019-May-20 10:46N 28°58' W 013°32'0 0.0
2019-May-20 10:16N 28°58' W 013°32'0 0.0
2019-May-20 09:58N 28°58' W 013°32'0 0.0
2019-May-20 09:22N 28°58' W 013°32'0 0.0
2019-May-20 08:33N 28°58' W 013°32'0 0.0
2019-May-20 08:24N 28°58' W 013°32'0 0.0
2019-May-20 08:00N 28°58' W 013°32'0 0.0
2019-May-20 07:29N 28°58' W 013°32'0 0.0
2019-May-20 06:54N 28°58' W 013°32'0 0.0
2019-May-20 06:30N 28°58' W 013°32'0 0.0
2019-May-20 05:58N 28°58' W 013°32'0 0.2
2019-May-20 05:30N 28°58' W 013°32'1 2.5
2019-May-20 04:59N 28°57' W 013°32'5 9.4
2019-May-20 04:29N 28°53' W 013°36'510.7
2019-May-20 03:59N 28°50' W 013°41'510.7
2019-May-20 03:30N 28°48' W 013°46'8010.7
2019-May-19 20:04N 28°19' W 015°11'111.8
2019-May-19 20:00N 28°18' W 015°11'510.6
2019-May-19 19:30N 28°14' W 015°15'510.1
2019-May-19 19:00N 28°10' W 015°19'611.2
2019-May-19 18:30N 28°07' W 015°24'2 4.1
2019-May-19 18:00N 28°08' W 015°25'0 0.0
2019-May-19 17:26N 28°08' W 015°25'0 0.0
2019-May-19 16:59N 28°08' W 015°25'0 0.0
2019-May-19 16:29N 28°08' W 015°25'0 0.0
2019-May-19 15:59N 28°08' W 015°25'0 0.0
2019-May-19 15:23N 28°08' W 015°25'0 0.0
2019-May-19 14:59N 28°08' W 015°25'0 0.0
2019-May-19 14:29N 28°08' W 015°25'0 0.0
2019-May-19 13:56N 28°08' W 015°25'0 0.0
2019-May-19 13:26N 28°08' W 015°25'0 0.0
2019-May-19 12:47N 28°08' W 015°25'0 0.0
2019-May-19 12:26N 28°08' W 015°25'0 0.0
2019-May-19 11:56N 28°08' W 015°25'0 0.0
2019-May-19 11:23N 28°08' W 015°25'0 0.0
2019-May-19 10:59N 28°08' W 015°25'0 0.0
2019-May-19 10:29N 28°08' W 015°25'0 0.0
2019-May-19 09:56N 28°08' W 015°25'0 0.0
2019-May-19 09:26N 28°08' W 015°25'0 0.0
2019-May-19 08:56N 28°08' W 015°25'0 0.0
2019-May-19 08:26N 28°08' W 015°25'0 0.0
2019-May-19 07:53N 28°08' W 015°25'0 0.0
2019-May-19 07:29N 28°08' W 015°25'0 0.0
2019-May-19 06:53N 28°08' W 015°25'0 1.3
2019-May-19 06:30N 28°08' W 015°25'3 5.7
2019-May-19 06:00N 28°07' W 015°22'4 8.3
2019-May-19 05:31N 28°09' W 015°18'5 9.8
2019-May-19 05:00N 28°14' W 015°17'40 7.2
2019-May-18 23:25N 28°43' W 015°48'5 8.1
2019-May-18 22:51N 28°41' W 015°53'3 8.4
2019-May-18 22:29N 28°39' W 015°56'4 8.4
2019-May-18 22:00N 28°36' W 015°59'4 8.3
2019-May-18 21:31N 28°33' W 016°02'4 8.1
2019-May-18 21:01N 28°30' W 016°05'4 7.5
2019-May-18 20:31N 28°28' W 016°09'4 8.3
2019-May-18 20:01N 28°28' W 016°14'1 1.4
2019-May-18 19:30N 28°29' W 016°14'0 0.0
2019-May-18 19:00N 28°29' W 016°14'0 0.0
2019-May-18 18:30N 28°29' W 016°14'0 0.0
2019-May-18 18:00N 28°29' W 016°14'0 0.0
2019-May-18 17:30N 28°29' W 016°14'0 0.0
2019-May-18 17:00N 28°29' W 016°14'0 0.0
2019-May-18 16:30N 28°29' W 016°14'0 0.0
2019-May-18 16:00N 28°29' W 016°14'0 0.0
2019-May-18 15:30N 28°29' W 016°14'0 0.0
2019-May-18 15:00N 28°29' W 016°14'0 0.0
2019-May-18 14:30N 28°29' W 016°14'0 0.0
2019-May-18 14:00N 28°29' W 016°14'0 0.0
2019-May-18 13:30N 28°29' W 016°14'0 0.0
2019-May-18 13:00N 28°29' W 016°14'0 0.0
2019-May-18 12:30N 28°29' W 016°14'0 0.0
2019-May-18 12:00N 28°29' W 016°14'0 0.0
2019-May-18 11:30N 28°29' W 016°14'0 0.0
2019-May-18 11:00N 28°29' W 016°14'0 0.0
2019-May-18 10:30N 28°29' W 016°14'0 0.0
2019-May-18 10:00N 28°29' W 016°14'0 0.0
2019-May-18 09:30N 28°29' W 016°14'2 3.4
2019-May-18 09:00N 28°28' W 016°12'816.5
2019-May-18 08:30N 28°33' W 016°05'17318.2
2019-May-17 23:00N 31°24' W 016°36'29912.5 040 / 371018.4 5.4 16.5 19.6
2019-May-16 23:00N 36°00' W 014°18'51521.5 030 / 251021.7 5.4 15.1 17.0
2019-May-15 23:00N 43°54' W 009°54'21419.4 310 / 351014.9 5.4 13.1 13.6
2019-May-15 12:00N 47°00' W 007°24'7322.3 110 / 301021.910.8 13.2 12.6
2019-May-15 08:43N 48°05' W 006°33'3921.1
2019-May-15 06:52N 48°38' W 006°02'821.7
2019-May-15 06:29N 48°45' W 005°56'1021.8
2019-May-15 06:01N 48°54' W 005°48'1121.7
2019-May-15 05:31N 49°00' W 005°34'1121.7
2019-May-15 05:01N 49°06' W 005°20'1521.2
2019-May-15 04:17N 49°14' W 005°00'1620.6
2019-May-15 03:30N 49°23' W 004°40'1820.0
2019-May-15 02:36N 49°31' W 004°15'219.8
2019-May-15 02:30N 49°32' W 004°12'1019.8
2019-May-15 02:00N 49°37' W 003°59'918.0
2019-May-15 01:30N 49°42' W 003°47'917.8
2019-May-15 01:00N 49°46' W 003°36'918.3
2019-May-15 00:31N 49°51' W 003°24'918.8
2019-May-15 00:00N 49°55' W 003°10'1119.5
2019-May-14 23:28N 50°00' W 002°56'1120.1
2019-May-14 22:54N 50°03' W 002°39'820.6
2019-May-14 22:30N 50°06' W 002°27'1020.9
2019-May-14 22:01N 50°10' W 002°12'1020.9
2019-May-14 21:30N 50°15' W 001°57'1120.5
2019-May-14 20:59N 50°21' W 001°43'1020.0
2019-May-14 20:31N 50°25' W 001°30'1019.6
2019-May-14 20:01N 50°29' W 001°16'1019.3
2019-May-14 19:30N 50°33' W 001°02'816.4
2019-May-14 19:00N 50°41' W 000°58'612.2
2019-May-14 18:30N 50°45' W 001°06'917.2
2019-May-14 18:00N 50°47' W 001°19'4 8.9
2019-May-14 17:30N 50°51' W 001°21'4 7.6
2019-May-14 17:00N 50°54' W 001°25'0 0.0
2019-May-14 14:29N 50°54' W 001°25'0 0.0
2019-May-14 13:23N 50°54' W 001°25'0 0.0
2019-May-14 12:02N 50°54' W 001°25'0 0.0
2019-May-14 11:41N 50°54' W 001°25'0 0.0
2019-May-14 11:20N 50°54' W 001°25'0 0.0
2019-May-14 10:41N 50°54' W 001°25'0 0.0
2019-May-14 10:26N 50°54' W 001°25'0 0.0
2019-May-14 09:59N 50°54' W 001°25'0 0.0
2019-May-14 09:29N 50°54' W 001°25'0 0.0
2019-May-14 08:56N 50°54' W 001°25'0 0.0
2019-May-14 08:29N 50°54' W 001°25'0 0.0
2019-May-14 07:08N 50°54' W 001°25'0 0.0
2019-May-14 06:16N 50°54' W 001°25'0 0.0
2019-May-14 05:46N 50°54' W 001°25'0 0.0
2019-May-14 04:34N 50°54' W 001°25'0 0.7
2019-May-14 04:08N 50°54' W 001°25'1 5.2
2019-May-14 04:00N 50°53' W 001°24'4 9.0
2019-May-14 03:31N 50°50' W 001°19'4 9.0
2019-May-14 03:01N 50°46' W 001°15'918.1
2019-May-14 02:30N 50°43' W 001°02'5 9.8
2019-May-14 02:00N 50°39' W 000°58'815.1
2019-May-14 01:30N 50°32' W 001°04'714.5
2019-May-14 01:00N 50°28' W 001°13'816.0
2019-May-14 00:30N 50°25' W 001°25'815.6
2019-May-14 00:00N 50°20' W 001°35'815.7
2019-May-13 23:30N 50°15' W 001°43'715.0
2019-May-13 23:00N 50°10' W 001°52'714.2
2019-May-13 22:30N 50°06' W 002°01'714.2
2019-May-13 22:00N 50°02' W 002°11'714.1
2019-May-13 21:30N 49°58' W 002°20'713.8
2019-May-13 21:00N 49°56' W 002°30'714.2
2019-May-13 20:30N 49°54' W 002°40'714.6
2019-May-13 20:00N 49°51' W 002°51'714.8
2019-May-13 19:30N 49°47' W 003°00'714.7
2019-May-13 19:00N 49°41' W 003°08'714.8
2019-May-13 18:30N 49°38' W 003°18'815.1
2019-May-13 18:00N 49°34' W 003°28'815.0
2019-May-13 17:29N 49°30' W 003°39'715.1
2019-May-13 17:00N 49°27' W 003°48'815.2
2019-May-13 16:30N 49°23' W 003°58'815.1
2019-May-13 16:00N 49°20' W 004°09'1015.4
2019-May-13 15:21N 49°16' W 004°23'515.5
2019-May-13 15:00N 49°13' W 004°30'3315.9
2019-May-13 12:55N 48°57' W 005°14'1516.6
2019-May-13 12:00N 48°49' W 005°34'29817.7
2019-May-12 19:14N 43°52' W 005°38'518.5
2019-May-12 18:57N 43°46' W 005°37'918.2
2019-May-12 18:28N 43°37' W 005°36'5 0.5
2019-May-12 08:31N 43°34' W 005°41'0 1.6
2019-May-12 08:29N 43°34' W 005°41'18616.2
2019-May-11 21:00N 42°48' W 009°48'21218.0 040 / 421024.1 5.4 13.7 14.0
2019-May-11 09:14N 39°16' W 009°55'919.2
2019-May-11 08:45N 39°07' W 009°54'519.1
2019-May-11 08:30N 39°03' W 009°54'1019.2
2019-May-11 08:00N 38°53' W 009°53'1019.1
2019-May-11 07:29N 38°43' W 009°52'919.3
2019-May-11 07:00N 38°34' W 009°50'1019.1
2019-May-11 06:28N 38°24' W 009°48'3318.8
2019-May-11 04:42N 37°52' W 009°39'519.2
2019-May-11 04:27N 37°47' W 009°37'3819.0
2019-May-11 02:29N 37°10' W 009°26'918.7
2019-May-11 02:00N 37°02' W 009°23'1118.8
2019-May-11 01:24N 36°52' W 009°18'819.2
2019-May-11 00:59N 36°46' W 009°11'919.3
2019-May-11 00:30N 36°42' W 009°00'1019.3
2019-May-10 23:59N 36°39' W 008°48'3719.3
2019-May-10 22:06N 36°27' W 008°05'321.0
2019-May-10 21:57N 36°26' W 008°02'186194.7
2019-May-10 21:00N 36°12' W 004°12'   320 / 301015.710.8 18.1 18.0

Dump ship's entire track history